sensor_id;sensor_type;location;lat;lon;timestamp;P1;durP1;ratioP1;P2;durP2;ratioP2
22480;SDS011;11407;56.964;-2.212;2022-08-01T00:00:19;4.13;;;2.30;;
22480;SDS011;11407;56.964;-2.212;2022-08-01T00:02:44;4.40;;;2.43;;
22480;SDS011;11407;56.964;-2.212;2022-08-01T00:05:09;6.17;;;2.40;;
22480;SDS011;11407;56.964;-2.212;2022-08-01T00:07:35;3.73;;;2.00;;
22480;SDS011;11407;56.964;-2.212;2022-08-01T00:10:05;5.03;;;2.10;;
22480;SDS011;11407;56.964;-2.212;2022-08-01T00:12:32;4.33;;;2.23;;
22480;SDS011;11407;56.964;-2.212;2022-08-01T00:14:58;6.37;;;2.23;;
22480;SDS011;11407;56.964;-2.212;2022-08-01T00:17:24;5.70;;;2.20;;
22480;SDS011;11407;56.964;-2.212;2022-08-01T00:19:49;4.77;;;2.17;;
22480;SDS011;11407;56.964;-2.212;2022-08-01T00:22:15;4.77;;;2.40;;
22480;SDS011;11407;56.964;-2.212;2022-08-01T00:24:40;5.00;;;2.40;;
22480;SDS011;11407;56.964;-2.212;2022-08-01T00:27:05;3.57;;;2.20;;
22480;SDS011;11407;56.964;-2.212;2022-08-01T00:29:31;7.13;;;2.17;;
22480;SDS011;11407;56.964;-2.212;2022-08-01T00:31:56;6.93;;;2.17;;
22480;SDS011;11407;56.964;-2.212;2022-08-01T00:34:22;3.03;;;2.10;;
22480;SDS011;11407;56.964;-2.212;2022-08-01T00:36:47;2.83;;;2.27;;
22480;SDS011;11407;56.964;-2.212;2022-08-01T00:39:13;5.00;;;2.20;;
22480;SDS011;11407;56.964;-2.212;2022-08-01T00:41:38;7.23;;;2.70;;
22480;SDS011;11407;56.964;-2.212;2022-08-01T00:44:04;3.47;;;2.10;;
22480;SDS011;11407;56.964;-2.212;2022-08-01T00:46:30;3.43;;;2.30;;
22480;SDS011;11407;56.964;-2.212;2022-08-01T00:48:56;7.80;;;2.20;;
22480;SDS011;11407;56.964;-2.212;2022-08-01T00:51:22;4.13;;;2.20;;
22480;SDS011;11407;56.964;-2.212;2022-08-01T00:53:48;4.47;;;2.03;;
22480;SDS011;11407;56.964;-2.212;2022-08-01T00:56:16;4.47;;;2.43;;
22480;SDS011;11407;56.964;-2.212;2022-08-01T00:58:42;5.10;;;2.43;;
22480;SDS011;11407;56.964;-2.212;2022-08-01T01:01:09;4.93;;;2.40;;
22480;SDS011;11407;56.964;-2.212;2022-08-01T01:03:34;4.03;;;2.00;;
22480;SDS011;11407;56.964;-2.212;2022-08-01T01:11:48;4.03;;;2.00;;
22480;SDS011;11407;56.964;-2.212;2022-08-01T01:17:00;3.43;;;2.17;;
22480;SDS011;11407;56.964;-2.212;2022-08-01T01:19:28;4.60;;;1.93;;
22480;SDS011;11407;56.964;-2.212;2022-08-01T01:27:49;3.87;;;2.17;;
22480;SDS011;11407;56.964;-2.212;2022-08-01T01:30:22;4.43;;;2.13;;
22480;SDS011;11407;56.964;-2.212;2022-08-01T01:32:51;2.43;;;1.80;;
22480;SDS011;11407;56.964;-2.212;2022-08-01T01:35:22;3.63;;;1.93;;
22480;SDS011;11407;56.964;-2.212;2022-08-01T01:37:52;4.43;;;1.90;;
22480;SDS011;11407;56.964;-2.212;2022-08-01T01:40:23;3.57;;;1.90;;
22480;SDS011;11407;56.964;-2.212;2022-08-01T01:42:50;3.10;;;1.87;;
22480;SDS011;11407;56.964;-2.212;2022-08-01T01:45:16;2.83;;;1.80;;
22480;SDS011;11407;56.964;-2.212;2022-08-01T01:47:43;2.80;;;1.97;;
22480;SDS011;11407;56.964;-2.212;2022-08-01T01:50:11;6.87;;;2.10;;
22480;SDS011;11407;56.964;-2.212;2022-08-01T01:52:38;4.63;;;2.03;;
22480;SDS011;11407;56.964;-2.212;2022-08-01T01:55:06;3.43;;;2.10;;
22480;SDS011;11407;56.964;-2.212;2022-08-01T01:57:35;2.90;;;2.10;;
22480;SDS011;11407;56.964;-2.212;2022-08-01T02:00:03;5.43;;;2.10;;
22480;SDS011;11407;56.964;-2.212;2022-08-01T02:02:31;4.10;;;2.10;;
22480;SDS011;11407;56.964;-2.212;2022-08-01T02:04:57;3.10;;;1.80;;
22480;SDS011;11407;56.964;-2.212;2022-08-01T02:07:24;3.97;;;1.77;;
22480;SDS011;11407;56.964;-2.212;2022-08-01T02:09:51;4.83;;;2.27;;
22480;SDS011;11407;56.964;-2.212;2022-08-01T02:12:18;4.77;;;2.13;;
22480;SDS011;11407;56.964;-2.212;2022-08-01T02:14:46;2.33;;;1.77;;
22480;SDS011;11407;56.964;-2.212;2022-08-01T02:17:15;3.53;;;2.17;;
22480;SDS011;11407;56.964;-2.212;2022-08-01T02:19:42;3.37;;;2.10;;
22480;SDS011;11407;56.964;-2.212;2022-08-01T02:22:16;4.40;;;1.87;;
22480;SDS011;11407;56.964;-2.212;2022-08-01T02:24:55;4.37;;;1.90;;
22480;SDS011;11407;56.964;-2.212;2022-08-01T02:27:34;4.83;;;1.80;;
22480;SDS011;11407;56.964;-2.212;2022-08-01T02:30:05;2.70;;;2.00;;
22480;SDS011;11407;56.964;-2.212;2022-08-01T02:32:40;5.30;;;2.10;;
22480;SDS011;11407;56.964;-2.212;2022-08-01T02:35:09;3.50;;;1.90;;
22480;SDS011;11407;56.964;-2.212;2022-08-01T02:37:38;6.50;;;1.93;;
22480;SDS011;11407;56.964;-2.212;2022-08-01T02:40:06;4.13;;;2.00;;
22480;SDS011;11407;56.964;-2.212;2022-08-01T02:42:34;3.57;;;2.00;;
22480;SDS011;11407;56.964;-2.212;2022-08-01T02:45:03;3.43;;;1.70;;
22480;SDS011;11407;56.964;-2.212;2022-08-01T02:47:33;2.40;;;1.57;;
22480;SDS011;11407;56.964;-2.212;2022-08-01T02:50:01;2.30;;;1.57;;
22480;SDS011;11407;56.964;-2.212;2022-08-01T02:52:27;5.27;;;1.90;;
22480;SDS011;11407;56.964;-2.212;2022-08-01T02:54:55;2.97;;;1.70;;
22480;SDS011;11407;56.964;-2.212;2022-08-01T02:57:22;4.13;;;1.80;;
22480;SDS011;11407;56.964;-2.212;2022-08-01T02:59:48;2.60;;;1.70;;
22480;SDS011;11407;56.964;-2.212;2022-08-01T03:02:15;4.07;;;1.83;;
22480;SDS011;11407;56.964;-2.212;2022-08-01T03:04:43;2.63;;;1.70;;
22480;SDS011;11407;56.964;-2.212;2022-08-01T03:07:10;2.47;;;1.70;;
22480;SDS011;11407;56.964;-2.212;2022-08-01T03:09:38;5.23;;;1.87;;
22480;SDS011;11407;56.964;-2.212;2022-08-01T03:12:06;1.93;;;1.77;;
22480;SDS011;11407;56.964;-2.212;2022-08-01T03:14:39;4.83;;;1.90;;
22480;SDS011;11407;56.964;-2.212;2022-08-01T03:17:06;3.60;;;2.00;;
22480;SDS011;11407;56.964;-2.212;2022-08-01T03:19:33;2.63;;;1.50;;
22480;SDS011;11407;56.964;-2.212;2022-08-01T03:22:02;3.10;;;1.70;;
22480;SDS011;11407;56.964;-2.212;2022-08-01T03:24:33;3.33;;;1.80;;
22480;SDS011;11407;56.964;-2.212;2022-08-01T03:27:00;5.17;;;1.97;;
22480;SDS011;11407;56.964;-2.212;2022-08-01T03:29:27;3.10;;;1.80;;
22480;SDS011;11407;56.964;-2.212;2022-08-01T03:31:55;4.97;;;1.90;;
22480;SDS011;11407;56.964;-2.212;2022-08-01T03:34:22;4.00;;;1.70;;
22480;SDS011;11407;56.964;-2.212;2022-08-01T03:37:07;2.97;;;1.73;;
22480;SDS011;11407;56.964;-2.212;2022-08-01T03:39:40;4.50;;;1.80;;
22480;SDS011;11407;56.964;-2.212;2022-08-01T03:42:12;3.20;;;1.60;;
22480;SDS011;11407;56.964;-2.212;2022-08-01T03:44:43;3.93;;;2.10;;
22480;SDS011;11407;56.964;-2.212;2022-08-01T03:47:19;2.00;;;1.60;;
22480;SDS011;11407;56.964;-2.212;2022-08-01T03:49:50;2.90;;;1.80;;
22480;SDS011;11407;56.964;-2.212;2022-08-01T03:52:17;1.77;;;1.60;;
22480;SDS011;11407;56.964;-2.212;2022-08-01T03:54:46;3.57;;;1.67;;
22480;SDS011;11407;56.964;-2.212;2022-08-01T03:57:14;4.53;;;1.87;;
22480;SDS011;11407;56.964;-2.212;2022-08-01T03:59:40;4.23;;;1.73;;
22480;SDS011;11407;56.964;-2.212;2022-08-01T04:02:07;2.27;;;1.63;;
22480;SDS011;11407;56.964;-2.212;2022-08-01T04:04:33;3.27;;;1.70;;
22480;SDS011;11407;56.964;-2.212;2022-08-01T04:06:59;7.90;;;1.90;;
22480;SDS011;11407;56.964;-2.212;2022-08-01T04:09:29;2.70;;;1.80;;
22480;SDS011;11407;56.964;-2.212;2022-08-01T04:11:56;7.80;;;2.10;;
22480;SDS011;11407;56.964;-2.212;2022-08-01T04:14:22;4.77;;;2.00;;
22480;SDS011;11407;56.964;-2.212;2022-08-01T04:16:48;4.27;;;1.90;;
22480;SDS011;11407;56.964;-2.212;2022-08-01T04:19:14;4.43;;;2.00;;
22480;SDS011;11407;56.964;-2.212;2022-08-01T04:21:40;3.10;;;1.83;;
22480;SDS011;11407;56.964;-2.212;2022-08-01T04:24:12;3.70;;;1.83;;
22480;SDS011;11407;56.964;-2.212;2022-08-01T04:26:41;3.10;;;1.83;;
22480;SDS011;11407;56.964;-2.212;2022-08-01T04:29:10;3.87;;;1.53;;
22480;SDS011;11407;56.964;-2.212;2022-08-01T04:31:36;3.67;;;1.70;;
22480;SDS011;11407;56.964;-2.212;2022-08-01T04:34:07;4.83;;;1.70;;
22480;SDS011;11407;56.964;-2.212;2022-08-01T04:36:35;4.03;;;1.77;;
22480;SDS011;11407;56.964;-2.212;2022-08-01T04:39:02;3.57;;;1.67;;
22480;SDS011;11407;56.964;-2.212;2022-08-01T04:41:29;3.50;;;1.90;;
22480;SDS011;11407;56.964;-2.212;2022-08-01T04:43:57;5.03;;;1.80;;
22480;SDS011;11407;56.964;-2.212;2022-08-01T04:46:24;5.33;;;1.80;;
22480;SDS011;11407;56.964;-2.212;2022-08-01T04:48:51;3.63;;;1.67;;
22480;SDS011;11407;56.964;-2.212;2022-08-01T04:51:17;3.57;;;1.80;;
22480;SDS011;11407;56.964;-2.212;2022-08-01T04:53:43;7.37;;;1.93;;
22480;SDS011;11407;56.964;-2.212;2022-08-01T04:56:11;4.97;;;2.27;;
22480;SDS011;11407;56.964;-2.212;2022-08-01T04:58:38;4.23;;;1.90;;
22480;SDS011;11407;56.964;-2.212;2022-08-01T05:01:05;4.53;;;1.80;;
22480;SDS011;11407;56.964;-2.212;2022-08-01T05:03:31;2.53;;;1.83;;
22480;SDS011;11407;56.964;-2.212;2022-08-01T05:05:56;3.77;;;1.67;;
22480;SDS011;11407;56.964;-2.212;2022-08-01T05:08:22;5.53;;;1.80;;
22480;SDS011;11407;56.964;-2.212;2022-08-01T05:10:47;2.33;;;1.70;;
22480;SDS011;11407;56.964;-2.212;2022-08-01T05:13:13;2.50;;;2.00;;
22480;SDS011;11407;56.964;-2.212;2022-08-01T05:15:38;4.87;;;1.90;;
22480;SDS011;11407;56.964;-2.212;2022-08-01T05:18:03;4.30;;;2.00;;
22480;SDS011;11407;56.964;-2.212;2022-08-01T05:20:29;6.63;;;1.90;;
22480;SDS011;11407;56.964;-2.212;2022-08-01T05:22:55;5.23;;;2.07;;
22480;SDS011;11407;56.964;-2.212;2022-08-01T05:25:20;4.90;;;2.00;;
22480;SDS011;11407;56.964;-2.212;2022-08-01T05:27:46;2.23;;;1.40;;
22480;SDS011;11407;56.964;-2.212;2022-08-01T05:30:12;4.83;;;1.83;;
22480;SDS011;11407;56.964;-2.212;2022-08-01T05:32:37;6.17;;;1.90;;
22480;SDS011;11407;56.964;-2.212;2022-08-01T05:35:03;2.67;;;1.60;;
22480;SDS011;11407;56.964;-2.212;2022-08-01T05:37:29;3.13;;;2.03;;
22480;SDS011;11407;56.964;-2.212;2022-08-01T05:39:55;3.10;;;1.60;;
22480;SDS011;11407;56.964;-2.212;2022-08-01T05:42:21;4.37;;;1.90;;
22480;SDS011;11407;56.964;-2.212;2022-08-01T05:44:46;6.03;;;2.10;;
22480;SDS011;11407;56.964;-2.212;2022-08-01T05:47:12;4.77;;;2.10;;
22480;SDS011;11407;56.964;-2.212;2022-08-01T05:49:38;4.67;;;1.90;;
22480;SDS011;11407;56.964;-2.212;2022-08-01T05:52:03;4.50;;;1.70;;
22480;SDS011;11407;56.964;-2.212;2022-08-01T05:54:30;4.13;;;1.83;;
22480;SDS011;11407;56.964;-2.212;2022-08-01T05:56:55;3.50;;;1.80;;
22480;SDS011;11407;56.964;-2.212;2022-08-01T05:59:24;4.17;;;1.70;;
22480;SDS011;11407;56.964;-2.212;2022-08-01T06:01:50;4.60;;;1.63;;
22480;SDS011;11407;56.964;-2.212;2022-08-01T06:04:15;3.90;;;1.83;;
22480;SDS011;11407;56.964;-2.212;2022-08-01T06:06:41;4.00;;;2.03;;
22480;SDS011;11407;56.964;-2.212;2022-08-01T06:09:06;2.90;;;1.53;;
22480;SDS011;11407;56.964;-2.212;2022-08-01T06:11:32;3.83;;;1.60;;
22480;SDS011;11407;56.964;-2.212;2022-08-01T06:13:57;4.93;;;1.77;;
22480;SDS011;11407;56.964;-2.212;2022-08-01T06:16:23;3.07;;;1.83;;
22480;SDS011;11407;56.964;-2.212;2022-08-01T06:18:48;4.50;;;1.63;;
22480;SDS011;11407;56.964;-2.212;2022-08-01T06:21:14;6.03;;;1.70;;
22480;SDS011;11407;56.964;-2.212;2022-08-01T06:23:39;3.60;;;1.40;;
22480;SDS011;11407;56.964;-2.212;2022-08-01T06:26:06;3.20;;;1.77;;
22480;SDS011;11407;56.964;-2.212;2022-08-01T06:28:31;7.57;;;2.27;;
22480;SDS011;11407;56.964;-2.212;2022-08-01T06:30:57;3.13;;;1.53;;
22480;SDS011;11407;56.964;-2.212;2022-08-01T06:33:24;5.33;;;1.60;;
22480;SDS011;11407;56.964;-2.212;2022-08-01T06:35:49;3.47;;;1.70;;
22480;SDS011;11407;56.964;-2.212;2022-08-01T06:38:15;4.03;;;1.50;;
22480;SDS011;11407;56.964;-2.212;2022-08-01T06:40:40;5.47;;;1.60;;
22480;SDS011;11407;56.964;-2.212;2022-08-01T06:43:06;4.47;;;1.77;;
22480;SDS011;11407;56.964;-2.212;2022-08-01T06:45:31;3.83;;;1.70;;
22480;SDS011;11407;56.964;-2.212;2022-08-01T06:47:57;5.97;;;1.73;;
22480;SDS011;11407;56.964;-2.212;2022-08-01T06:50:22;4.77;;;1.70;;
22480;SDS011;11407;56.964;-2.212;2022-08-01T06:52:47;5.63;;;1.63;;
22480;SDS011;11407;56.964;-2.212;2022-08-01T06:55:13;4.57;;;1.60;;
22480;SDS011;11407;56.964;-2.212;2022-08-01T06:57:46;4.40;;;1.63;;
22480;SDS011;11407;56.964;-2.212;2022-08-01T07:00:14;5.90;;;1.70;;
22480;SDS011;11407;56.964;-2.212;2022-08-01T07:02:41;4.03;;;1.60;;
22480;SDS011;11407;56.964;-2.212;2022-08-01T07:05:07;5.77;;;1.60;;
22480;SDS011;11407;56.964;-2.212;2022-08-01T07:07:33;6.73;;;1.73;;
22480;SDS011;11407;56.964;-2.212;2022-08-01T07:09:58;4.47;;;1.63;;
22480;SDS011;11407;56.964;-2.212;2022-08-01T07:12:24;5.20;;;1.93;;
22480;SDS011;11407;56.964;-2.212;2022-08-01T07:14:49;2.80;;;1.20;;
22480;SDS011;11407;56.964;-2.212;2022-08-01T07:17:14;4.37;;;1.70;;
22480;SDS011;11407;56.964;-2.212;2022-08-01T07:19:40;8.47;;;1.63;;
22480;SDS011;11407;56.964;-2.212;2022-08-01T07:22:05;6.23;;;1.77;;
22480;SDS011;11407;56.964;-2.212;2022-08-01T07:24:31;3.37;;;1.50;;
22480;SDS011;11407;56.964;-2.212;2022-08-01T07:26:56;3.23;;;1.60;;
22480;SDS011;11407;56.964;-2.212;2022-08-01T07:29:23;4.07;;;1.70;;
22480;SDS011;11407;56.964;-2.212;2022-08-01T07:31:50;4.70;;;1.50;;
22480;SDS011;11407;56.964;-2.212;2022-08-01T07:34:17;3.43;;;1.70;;
22480;SDS011;11407;56.964;-2.212;2022-08-01T07:36:43;3.80;;;1.70;;
22480;SDS011;11407;56.964;-2.212;2022-08-01T07:39:08;3.53;;;1.73;;
22480;SDS011;11407;56.964;-2.212;2022-08-01T07:41:34;4.23;;;2.00;;
22480;SDS011;11407;56.964;-2.212;2022-08-01T07:43:59;4.03;;;2.10;;
22480;SDS011;11407;56.964;-2.212;2022-08-01T07:46:25;4.70;;;1.80;;
22480;SDS011;11407;56.964;-2.212;2022-08-01T07:48:50;3.43;;;1.57;;
22480;SDS011;11407;56.964;-2.212;2022-08-01T07:51:15;4.03;;;1.60;;
22480;SDS011;11407;56.964;-2.212;2022-08-01T07:53:41;6.43;;;1.90;;
22480;SDS011;11407;56.964;-2.212;2022-08-01T07:56:06;3.87;;;1.53;;
22480;SDS011;11407;56.964;-2.212;2022-08-01T07:58:32;3.73;;;1.60;;
22480;SDS011;11407;56.964;-2.212;2022-08-01T08:00:58;6.33;;;1.87;;
22480;SDS011;11407;56.964;-2.212;2022-08-01T08:03:24;2.73;;;1.60;;
22480;SDS011;11407;56.964;-2.212;2022-08-01T08:05:50;7.00;;;1.83;;
22480;SDS011;11407;56.964;-2.212;2022-08-01T08:08:15;5.10;;;1.73;;
22480;SDS011;11407;56.964;-2.212;2022-08-01T08:10:42;2.83;;;1.53;;
22480;SDS011;11407;56.964;-2.212;2022-08-01T08:13:07;3.77;;;1.53;;
22480;SDS011;11407;56.964;-2.212;2022-08-01T08:15:33;4.20;;;1.50;;
22480;SDS011;11407;56.964;-2.212;2022-08-01T08:18:00;4.60;;;1.50;;
22480;SDS011;11407;56.964;-2.212;2022-08-01T08:20:25;4.50;;;1.57;;
22480;SDS011;11407;56.964;-2.212;2022-08-01T08:22:53;4.37;;;1.70;;
22480;SDS011;11407;56.964;-2.212;2022-08-01T08:25:19;3.67;;;1.60;;
22480;SDS011;11407;56.964;-2.212;2022-08-01T08:27:45;2.93;;;1.60;;
22480;SDS011;11407;56.964;-2.212;2022-08-01T08:30:11;2.30;;;1.40;;
22480;SDS011;11407;56.964;-2.212;2022-08-01T08:32:37;3.63;;;1.50;;
22480;SDS011;11407;56.964;-2.212;2022-08-01T08:35:03;2.17;;;1.30;;
22480;SDS011;11407;56.964;-2.212;2022-08-01T08:37:30;3.20;;;1.80;;
22480;SDS011;11407;56.964;-2.212;2022-08-01T08:39:55;2.27;;;1.50;;
22480;SDS011;11407;56.964;-2.212;2022-08-01T08:42:21;3.10;;;1.50;;
22480;SDS011;11407;56.964;-2.212;2022-08-01T08:44:47;4.20;;;1.63;;
22480;SDS011;11407;56.964;-2.212;2022-08-01T08:47:13;3.20;;;1.47;;
22480;SDS011;11407;56.964;-2.212;2022-08-01T08:49:41;3.03;;;1.50;;
22480;SDS011;11407;56.964;-2.212;2022-08-01T08:52:09;3.63;;;1.53;;
22480;SDS011;11407;56.964;-2.212;2022-08-01T08:54:36;2.47;;;1.37;;
22480;SDS011;11407;56.964;-2.212;2022-08-01T08:57:03;3.43;;;1.40;;
22480;SDS011;11407;56.964;-2.212;2022-08-01T08:59:30;3.80;;;1.40;;
22480;SDS011;11407;56.964;-2.212;2022-08-01T09:01:56;3.07;;;1.33;;
22480;SDS011;11407;56.964;-2.212;2022-08-01T09:04:22;1.83;;;1.30;;
22480;SDS011;11407;56.964;-2.212;2022-08-01T09:06:48;2.30;;;1.27;;
22480;SDS011;11407;56.964;-2.212;2022-08-01T09:09:14;4.60;;;1.47;;
22480;SDS011;11407;56.964;-2.212;2022-08-01T09:11:40;2.90;;;1.47;;
22480;SDS011;11407;56.964;-2.212;2022-08-01T09:16:38;4.47;;;1.50;;
22480;SDS011;11407;56.964;-2.212;2022-08-01T09:19:18;3.00;;;1.50;;
22480;SDS011;11407;56.964;-2.212;2022-08-01T09:21:58;1.27;;;1.17;;
22480;SDS011;11407;56.964;-2.212;2022-08-01T09:24:28;4.10;;;1.40;;
22480;SDS011;11407;56.964;-2.212;2022-08-01T09:26:54;3.57;;;1.53;;
22480;SDS011;11407;56.964;-2.212;2022-08-01T09:29:24;2.37;;;1.37;;
22480;SDS011;11407;56.964;-2.212;2022-08-01T09:31:54;3.60;;;1.60;;
22480;SDS011;11407;56.964;-2.212;2022-08-01T09:34:28;5.63;;;2.10;;
22480;SDS011;11407;56.964;-2.212;2022-08-01T09:36:56;4.07;;;1.80;;
22480;SDS011;11407;56.964;-2.212;2022-08-01T09:39:27;6.23;;;2.60;;
22480;SDS011;11407;56.964;-2.212;2022-08-01T09:41:57;5.33;;;2.10;;
22480;SDS011;11407;56.964;-2.212;2022-08-01T09:44:40;3.00;;;1.87;;
22480;SDS011;11407;56.964;-2.212;2022-08-01T09:47:07;5.17;;;1.90;;
22480;SDS011;11407;56.964;-2.212;2022-08-01T09:49:36;5.77;;;1.70;;
22480;SDS011;11407;56.964;-2.212;2022-08-01T09:52:20;4.17;;;1.80;;
22480;SDS011;11407;56.964;-2.212;2022-08-01T09:54:57;6.23;;;1.73;;
22480;SDS011;11407;56.964;-2.212;2022-08-01T09:57:24;5.40;;;1.83;;
22480;SDS011;11407;56.964;-2.212;2022-08-01T09:59:51;3.30;;;1.70;;
22480;SDS011;11407;56.964;-2.212;2022-08-01T10:02:28;2.93;;;1.63;;
22480;SDS011;11407;56.964;-2.212;2022-08-01T10:04:54;6.50;;;1.70;;
22480;SDS011;11407;56.964;-2.212;2022-08-01T10:07:19;3.60;;;1.80;;
22480;SDS011;11407;56.964;-2.212;2022-08-01T10:09:46;4.20;;;1.90;;
22480;SDS011;11407;56.964;-2.212;2022-08-01T10:12:13;2.73;;;1.83;;
22480;SDS011;11407;56.964;-2.212;2022-08-01T10:14:42;2.43;;;1.70;;
22480;SDS011;11407;56.964;-2.212;2022-08-01T10:17:11;5.60;;;1.93;;
22480;SDS011;11407;56.964;-2.212;2022-08-01T10:19:39;6.07;;;2.07;;
22480;SDS011;11407;56.964;-2.212;2022-08-01T10:22:07;5.07;;;2.00;;
22480;SDS011;11407;56.964;-2.212;2022-08-01T10:24:35;3.27;;;1.80;;
22480;SDS011;11407;56.964;-2.212;2022-08-01T10:27:05;4.20;;;1.90;;
22480;SDS011;11407;56.964;-2.212;2022-08-01T10:29:37;3.00;;;1.50;;
22480;SDS011;11407;56.964;-2.212;2022-08-01T10:32:07;3.20;;;1.70;;
22480;SDS011;11407;56.964;-2.212;2022-08-01T10:34:34;4.33;;;1.63;;
22480;SDS011;11407;56.964;-2.212;2022-08-01T10:37:02;3.63;;;2.10;;
22480;SDS011;11407;56.964;-2.212;2022-08-01T10:39:30;4.33;;;1.60;;
22480;SDS011;11407;56.964;-2.212;2022-08-01T10:41:56;5.97;;;1.83;;
22480;SDS011;11407;56.964;-2.212;2022-08-01T10:44:23;4.17;;;1.70;;
22480;SDS011;11407;56.964;-2.212;2022-08-01T10:46:52;4.97;;;1.80;;
22480;SDS011;11407;56.964;-2.212;2022-08-01T10:49:28;5.63;;;1.90;;
22480;SDS011;11407;56.964;-2.212;2022-08-01T10:51:58;4.83;;;1.70;;
22480;SDS011;11407;56.964;-2.212;2022-08-01T10:54:24;12.57;;;2.57;;
22480;SDS011;11407;56.964;-2.212;2022-08-01T10:56:50;6.80;;;2.23;;
22480;SDS011;11407;56.964;-2.212;2022-08-01T10:59:24;3.70;;;1.70;;
22480;SDS011;11407;56.964;-2.212;2022-08-01T11:01:58;3.13;;;1.53;;
22480;SDS011;11407;56.964;-2.212;2022-08-01T11:09:39;5.20;;;1.80;;
22480;SDS011;11407;56.964;-2.212;2022-08-01T11:12:11;5.13;;;1.60;;
22480;SDS011;11407;56.964;-2.212;2022-08-01T11:20:05;2.90;;;1.30;;
22480;SDS011;11407;56.964;-2.212;2022-08-01T11:23:12;3.73;;;1.30;;
22480;SDS011;11407;56.964;-2.212;2022-08-01T11:25:25;4.00;;;1.10;;
22480;SDS011;11407;56.964;-2.212;2022-08-01T11:30:41;5.07;;;1.20;;
22480;SDS011;11407;56.964;-2.212;2022-08-01T11:33:19;3.97;;;1.23;;
22480;SDS011;11407;56.964;-2.212;2022-08-01T11:38:37;3.57;;;1.20;;
22480;SDS011;11407;56.964;-2.212;2022-08-01T11:57:19;3.70;;;1.23;;
22480;SDS011;11407;56.964;-2.212;2022-08-01T11:59:46;2.07;;;1.10;;
22480;SDS011;11407;56.964;-2.212;2022-08-01T12:02:35;2.67;;;1.20;;
22480;SDS011;11407;56.964;-2.212;2022-08-01T12:05:06;22.87;;;2.17;;
22480;SDS011;11407;56.964;-2.212;2022-08-01T12:07:33;2.50;;;1.40;;
22480;SDS011;11407;56.964;-2.212;2022-08-01T12:10:01;6.27;;;1.83;;
22480;SDS011;11407;56.964;-2.212;2022-08-01T12:12:41;2.87;;;1.10;;
22480;SDS011;11407;56.964;-2.212;2022-08-01T12:15:17;2.27;;;1.10;;
22480;SDS011;11407;56.964;-2.212;2022-08-01T12:20:12;3.33;;;1.07;;
22480;SDS011;11407;56.964;-2.212;2022-08-01T12:22:40;4.67;;;1.30;;
22480;SDS011;11407;56.964;-2.212;2022-08-01T12:25:24;12.63;;;1.60;;
22480;SDS011;11407;56.964;-2.212;2022-08-01T12:27:49;3.43;;;1.10;;
22480;SDS011;11407;56.964;-2.212;2022-08-01T12:30:20;6.93;;;1.00;;
22480;SDS011;11407;56.964;-2.212;2022-08-01T12:32:48;1.53;;;0.90;;
22480;SDS011;11407;56.964;-2.212;2022-08-01T12:37:45;5.03;;;1.40;;
22480;SDS011;11407;56.964;-2.212;2022-08-01T12:42:41;2.80;;;0.90;;
22480;SDS011;11407;56.964;-2.212;2022-08-01T12:45:09;2.83;;;1.10;;
22480;SDS011;11407;56.964;-2.212;2022-08-01T12:47:38;4.53;;;1.00;;
22480;SDS011;11407;56.964;-2.212;2022-08-01T12:50:14;4.00;;;0.90;;
22480;SDS011;11407;56.964;-2.212;2022-08-01T12:52:48;2.17;;;0.83;;
22480;SDS011;11407;56.964;-2.212;2022-08-01T12:55:20;2.47;;;0.90;;
22480;SDS011;11407;56.964;-2.212;2022-08-01T12:57:49;3.17;;;1.13;;
22480;SDS011;11407;56.964;-2.212;2022-08-01T13:00:27;2.80;;;1.00;;
22480;SDS011;11407;56.964;-2.212;2022-08-01T13:08:13;2.73;;;1.10;;
22480;SDS011;11407;56.964;-2.212;2022-08-01T13:11:00;4.90;;;1.03;;
22480;SDS011;11407;56.964;-2.212;2022-08-01T13:13:50;3.70;;;0.83;;
22480;SDS011;11407;56.964;-2.212;2022-08-01T13:16:16;2.13;;;0.90;;
22480;SDS011;11407;56.964;-2.212;2022-08-01T13:18:50;5.17;;;1.20;;
22480;SDS011;11407;56.964;-2.212;2022-08-01T13:21:20;3.23;;;1.10;;
22480;SDS011;11407;56.964;-2.212;2022-08-01T13:26:44;4.30;;;1.10;;
22480;SDS011;11407;56.964;-2.212;2022-08-01T13:29:12;2.47;;;1.10;;
22480;SDS011;11407;56.964;-2.212;2022-08-01T13:31:40;1.73;;;0.90;;
22480;SDS011;11407;56.964;-2.212;2022-08-01T13:34:06;4.07;;;1.10;;
22480;SDS011;11407;56.964;-2.212;2022-08-01T13:36:32;3.33;;;1.10;;
22480;SDS011;11407;56.964;-2.212;2022-08-01T13:38:59;3.70;;;1.03;;
22480;SDS011;11407;56.964;-2.212;2022-08-01T13:41:44;2.37;;;1.00;;
22480;SDS011;11407;56.964;-2.212;2022-08-01T13:44:10;2.73;;;1.03;;
22480;SDS011;11407;56.964;-2.212;2022-08-01T13:46:37;1.73;;;0.90;;
22480;SDS011;11407;56.964;-2.212;2022-08-01T13:49:03;7.93;;;1.30;;
22480;SDS011;11407;56.964;-2.212;2022-08-01T13:51:30;3.80;;;0.93;;
22480;SDS011;11407;56.964;-2.212;2022-08-01T13:53:56;1.73;;;1.00;;
22480;SDS011;11407;56.964;-2.212;2022-08-01T13:56:22;1.97;;;0.80;;
22480;SDS011;11407;56.964;-2.212;2022-08-01T13:58:48;1.67;;;1.10;;
22480;SDS011;11407;56.964;-2.212;2022-08-01T14:01:13;1.73;;;0.80;;
22480;SDS011;11407;56.964;-2.212;2022-08-01T14:03:39;1.40;;;0.70;;
22480;SDS011;11407;56.964;-2.212;2022-08-01T14:06:04;3.30;;;1.00;;
22480;SDS011;11407;56.964;-2.212;2022-08-01T14:08:30;4.97;;;1.20;;
22480;SDS011;11407;56.964;-2.212;2022-08-01T14:10:56;3.23;;;0.73;;
22480;SDS011;11407;56.964;-2.212;2022-08-01T14:13:23;2.47;;;0.93;;
22480;SDS011;11407;56.964;-2.212;2022-08-01T14:15:52;2.80;;;1.20;;
22480;SDS011;11407;56.964;-2.212;2022-08-01T14:18:18;2.37;;;1.40;;
22480;SDS011;11407;56.964;-2.212;2022-08-01T14:20:44;3.47;;;1.10;;
22480;SDS011;11407;56.964;-2.212;2022-08-01T14:23:10;4.23;;;1.10;;
22480;SDS011;11407;56.964;-2.212;2022-08-01T14:25:36;1.53;;;0.90;;
22480;SDS011;11407;56.964;-2.212;2022-08-01T14:28:02;1.77;;;0.83;;
22480;SDS011;11407;56.964;-2.212;2022-08-01T14:30:28;2.73;;;0.87;;
22480;SDS011;11407;56.964;-2.212;2022-08-01T14:32:54;4.07;;;1.00;;
22480;SDS011;11407;56.964;-2.212;2022-08-01T14:35:19;2.30;;;0.90;;
22480;SDS011;11407;56.964;-2.212;2022-08-01T14:37:44;3.63;;;0.97;;
22480;SDS011;11407;56.964;-2.212;2022-08-01T14:40:10;2.93;;;0.90;;
22480;SDS011;11407;56.964;-2.212;2022-08-01T14:42:36;1.70;;;0.90;;
22480;SDS011;11407;56.964;-2.212;2022-08-01T14:45:03;3.43;;;1.13;;
22480;SDS011;11407;56.964;-2.212;2022-08-01T14:47:34;4.50;;;1.20;;
22480;SDS011;11407;56.964;-2.212;2022-08-01T14:50:01;3.83;;;1.10;;
22480;SDS011;11407;56.964;-2.212;2022-08-01T14:52:26;3.53;;;1.03;;
22480;SDS011;11407;56.964;-2.212;2022-08-01T14:54:52;2.60;;;1.10;;
22480;SDS011;11407;56.964;-2.212;2022-08-01T14:57:17;2.90;;;1.10;;
22480;SDS011;11407;56.964;-2.212;2022-08-01T14:59:43;7.70;;;1.17;;
22480;SDS011;11407;56.964;-2.212;2022-08-01T15:02:09;3.90;;;1.00;;
22480;SDS011;11407;56.964;-2.212;2022-08-01T15:04:36;3.93;;;1.00;;
22480;SDS011;11407;56.964;-2.212;2022-08-01T15:07:01;2.07;;;1.03;;
22480;SDS011;11407;56.964;-2.212;2022-08-01T15:09:27;5.87;;;1.10;;
22480;SDS011;11407;56.964;-2.212;2022-08-01T15:11:52;4.40;;;1.10;;
22480;SDS011;11407;56.964;-2.212;2022-08-01T15:14:18;4.10;;;1.73;;
22480;SDS011;11407;56.964;-2.212;2022-08-01T15:17:10;6.53;;;1.23;;
22480;SDS011;11407;56.964;-2.212;2022-08-01T15:19:35;5.10;;;1.10;;
22480;SDS011;11407;56.964;-2.212;2022-08-01T15:22:00;3.83;;;1.10;;
22480;SDS011;11407;56.964;-2.212;2022-08-01T15:24:26;2.20;;;1.10;;
22480;SDS011;11407;56.964;-2.212;2022-08-01T15:26:51;2.77;;;1.03;;
22480;SDS011;11407;56.964;-2.212;2022-08-01T15:29:17;2.37;;;0.90;;
22480;SDS011;11407;56.964;-2.212;2022-08-01T15:31:42;3.00;;;1.03;;
22480;SDS011;11407;56.964;-2.212;2022-08-01T15:34:08;2.07;;;1.10;;
22480;SDS011;11407;56.964;-2.212;2022-08-01T15:36:33;3.17;;;1.10;;
22480;SDS011;11407;56.964;-2.212;2022-08-01T15:38:59;2.00;;;0.90;;
22480;SDS011;11407;56.964;-2.212;2022-08-01T15:41:24;2.00;;;0.90;;